createdAt,value
2023-03-21T00:00:32.898Z,22.52
2023-03-21T00:01:36.583Z,22.53
2023-03-21T00:02:38.416Z,22.52
2023-03-21T00:03:43.217Z,22.48
2023-03-21T00:04:52.409Z,22.52
2023-03-21T00:05:55.833Z,22.53
2023-03-21T00:06:57.644Z,22.53
2023-03-21T00:08:01.099Z,22.51
2023-03-21T00:09:04.595Z,22.29
2023-03-21T00:10:15.392Z,22.48
2023-03-21T00:11:20.059Z,22.54
2023-03-21T00:12:21.865Z,22.45
2023-03-21T00:13:23.744Z,22.51
2023-03-21T00:14:26.148Z,22.50
2023-03-21T00:15:41.290Z,22.49
2023-03-21T00:16:50.608Z,22.52
2023-03-21T00:17:58.411Z,22.51
2023-03-21T00:19:03.291Z,22.52
2023-03-21T00:20:07.061Z,22.50
2023-03-21T00:22:37.105Z,22.52
2023-03-21T00:23:39.011Z,22.54
2023-03-21T00:24:41.133Z,22.51
2023-03-21T00:25:43.064Z,22.48
2023-03-21T00:26:45.006Z,22.48
2023-03-21T00:28:05.187Z,22.48
2023-03-21T00:29:08.599Z,22.53
2023-03-21T00:30:12.184Z,22.49
2023-03-21T00:31:14.377Z,22.49
2023-03-21T00:32:17.946Z,22.32
2023-03-21T00:33:23.008Z,22.50
2023-03-21T00:34:36.899Z,22.48
2023-03-21T00:36:06.356Z,22.51
2023-03-21T00:37:10.085Z,22.53
2023-03-21T00:38:12.125Z,22.48
2023-03-21T00:39:15.395Z,22.49
2023-03-21T00:40:26.590Z,22.48
2023-03-21T00:41:42.100Z,22.47
2023-03-21T00:42:44.889Z,22.50
2023-03-21T00:43:46.692Z,22.48
2023-03-21T00:44:48.493Z,22.47
2023-03-21T00:45:51.736Z,22.29
2023-03-21T00:47:06.262Z,22.40
2023-03-21T00:48:10.501Z,22.45
2023-03-21T00:49:12.435Z,22.45
2023-03-21T00:50:16.410Z,22.45
2023-03-21T00:51:27.222Z,22.44
2023-03-21T00:52:40.218Z,22.46
2023-03-21T00:53:43.136Z,22.47
2023-03-21T00:54:45.339Z,22.46
2023-03-21T00:55:48.225Z,22.44
2023-03-21T00:56:50.036Z,22.43
2023-03-21T00:58:01.092Z,22.43
2023-03-21T00:59:04.348Z,22.45
2023-03-21T01:00:10.652Z,22.42
2023-03-21T01:01:12.666Z,22.43
2023-03-21T01:02:15.173Z,22.43
2023-03-21T01:03:24.845Z,22.42
2023-03-21T01:04:28.359Z,22.43
2023-03-21T01:05:49.644Z,22.37
2023-03-21T01:06:51.453Z,22.46
2023-03-21T01:07:53.414Z,22.42
2023-03-21T01:08:55.777Z,22.41
2023-03-21T01:09:57.569Z,22.40
2023-03-21T01:11:04.952Z,22.40
2023-03-21T01:12:06.862Z,22.39
2023-03-21T01:13:10.281Z,22.39
2023-03-21T01:14:22.459Z,22.38
2023-03-21T01:15:25.470Z,22.42
2023-03-21T01:16:27.772Z,22.40
2023-03-21T01:17:29.675Z,22.37
2023-03-21T01:18:32.707Z,22.39
2023-03-21T01:19:48.621Z,22.39
2023-03-21T01:20:54.054Z,22.44
2023-03-21T01:21:56.921Z,22.42
2023-03-21T01:22:59.685Z,22.40
2023-03-21T01:24:01.975Z,22.35
2023-03-21T01:25:21.079Z,22.32
2023-03-21T01:26:24.020Z,22.43
2023-03-21T01:27:25.860Z,22.36
2023-03-21T01:28:28.800Z,22.39
2023-03-21T01:29:30.789Z,22.32
2023-03-21T01:30:36.962Z,22.35
2023-03-21T01:31:43.717Z,22.40
2023-03-21T01:32:45.550Z,22.38
2023-03-21T01:33:47.462Z,22.36
2023-03-21T01:34:51.670Z,22.38
2023-03-21T01:36:10.005Z,22.37
2023-03-21T01:37:14.929Z,22.41
2023-03-21T01:38:22.598Z,22.41
2023-03-21T01:39:24.380Z,22.35
2023-03-21T01:40:27.263Z,22.29
2023-03-21T01:41:44.689Z,22.40
2023-03-21T01:43:01.858Z,22.43
2023-03-21T01:44:04.565Z,22.40
2023-03-21T01:45:49.662Z,22.44
2023-03-21T01:47:09.634Z,22.46
2023-03-21T01:48:23.476Z,22.47
2023-03-21T01:49:36.415Z,22.43
2023-03-21T01:50:56.650Z,22.45
2023-03-21T01:52:23.612Z,22.42
2023-03-21T01:53:36.618Z,22.42
2023-03-21T01:54:41.229Z,22.39
2023-03-21T01:55:43.382Z,22.37
2023-03-21T01:57:09.936Z,22.40
2023-03-21T01:58:14.170Z,22.39
2023-03-21T01:59:29.381Z,22.38
2023-03-21T02:01:01.160Z,22.40
2023-03-21T02:02:20.871Z,22.42
2023-03-21T02:03:50.937Z,22.45
2023-03-21T02:05:03.828Z,22.37
2023-03-21T02:06:12.728Z,22.33
2023-03-21T02:07:25.677Z,22.37
2023-03-21T02:08:39.106Z,22.37
2023-03-21T02:09:49.059Z,22.36
2023-03-21T02:10:55.277Z,22.36
2023-03-21T02:12:09.310Z,22.36
2023-03-21T02:13:11.621Z,22.33
2023-03-21T02:14:28.456Z,22.32
2023-03-21T02:16:10.532Z,22.42
2023-03-21T02:17:27.133Z,22.42
2023-03-21T02:18:55.250Z,22.44
2023-03-21T02:20:17.779Z,22.40
2023-03-21T02:21:41.230Z,22.39
2023-03-21T02:23:04.961Z,22.39
2023-03-21T02:24:21.749Z,22.42
2023-03-21T02:25:29.685Z,22.37
2023-03-21T02:27:01.351Z,22.34
2023-03-21T02:28:31.145Z,22.40
2023-03-21T02:29:48.229Z,22.38
2023-03-21T02:31:37.784Z,22.41
2023-03-21T02:33:00.765Z,22.42
2023-03-21T02:34:24.072Z,22.39
2023-03-21T02:36:11.974Z,22.44
2023-03-21T02:37:17.127Z,22.44
2023-03-21T02:38:24.175Z,22.38
2023-03-21T02:39:52.006Z,22.39
2023-03-21T02:41:01.717Z,22.37
2023-03-21T02:42:13.684Z,22.32
2023-03-21T02:43:47.943Z,22.33
2023-03-21T02:45:19.356Z,22.40
2023-03-21T02:46:42.972Z,22.40
2023-03-21T02:47:53.243Z,22.40
2023-03-21T02:49:08.637Z,22.31
2023-03-21T02:50:19.059Z,22.34
2023-03-21T02:51:24.872Z,22.29
2023-03-21T02:52:38.759Z,22.27
2023-03-21T02:53:54.983Z,22.31
2023-03-21T02:55:25.979Z,22.36
2023-03-21T02:56:40.468Z,22.36
2023-03-21T02:57:45.418Z,22.33
2023-03-21T02:58:49.481Z,22.26
2023-03-21T02:59:56.885Z,22.28
2023-03-21T03:01:09.265Z,22.30
2023-03-21T03:02:23.548Z,22.29
2023-03-21T03:03:34.123Z,22.25
2023-03-21T03:04:37.512Z,22.29
2023-03-21T03:05:49.710Z,22.20
2023-03-21T03:07:10.660Z,22.26
2023-03-21T03:08:53.073Z,22.36
2023-03-21T03:10:26.807Z,22.41
2023-03-21T03:11:33.143Z,22.39
2023-03-21T03:12:46.997Z,22.34
2023-03-21T03:16:05.375Z,22.42
2023-03-21T03:17:17.318Z,22.41
2023-03-21T03:18:41.787Z,22.38
2023-03-21T03:19:55.303Z,22.37
2023-03-21T03:21:06.712Z,22.34
2023-03-21T03:22:28.049Z,22.33
2023-03-21T03:24:07.291Z,22.42
2023-03-21T03:25:23.153Z,22.37
2023-03-21T03:26:40.900Z,22.38
2023-03-21T03:27:44.929Z,22.34
2023-03-21T03:28:51.433Z,22.21
2023-03-21T03:29:55.806Z,22.29
2023-03-21T03:31:09.211Z,22.29
2023-03-21T03:32:24.389Z,22.15
2023-03-21T03:33:27.406Z,22.30
2023-03-21T03:34:34.507Z,22.27
2023-03-21T03:35:37.890Z,22.27
2023-03-21T03:36:44.504Z,22.26
2023-03-21T03:37:56.611Z,22.27
2023-03-21T03:39:04.053Z,22.29
2023-03-21T03:40:11.407Z,22.27
2023-03-21T03:41:29.380Z,22.30
2023-03-21T03:42:40.864Z,22.30
2023-03-21T03:43:56.614Z,22.32
2023-03-21T03:45:01.540Z,22.32
2023-03-21T03:46:13.445Z,22.29
2023-03-21T03:47:32.358Z,22.31
2023-03-21T03:48:52.252Z,22.32
2023-03-21T03:50:06.370Z,22.34
2023-03-21T03:51:48.341Z,22.42
2023-03-21T03:53:28.753Z,22.45
2023-03-21T03:54:38.396Z,22.38
2023-03-21T03:55:41.824Z,22.36
2023-03-21T03:56:47.998Z,22.26
2023-03-21T03:57:50.073Z,22.30
2023-03-21T03:58:52.190Z,22.29
2023-03-21T03:59:59.005Z,22.29
2023-03-21T04:01:17.961Z,22.31
2023-03-21T04:02:20.543Z,22.29
2023-03-21T04:03:23.845Z,22.18
2023-03-21T04:04:29.328Z,22.26
2023-03-21T04:05:32.595Z,22.25
2023-03-21T04:06:34.465Z,22.04
2023-03-21T04:07:36.753Z,22.19
2023-03-21T04:08:38.707Z,22.25
2023-03-21T04:09:44.560Z,22.25
2023-03-21T04:10:50.291Z,22.27
2023-03-21T04:11:52.981Z,22.26
2023-03-21T04:12:55.193Z,22.25
2023-03-21T04:14:08.003Z,22.28
2023-03-21T04:15:11.368Z,22.27
2023-03-21T04:16:19.372Z,22.27
2023-03-21T04:17:21.647Z,22.28
2023-03-21T04:18:23.835Z,22.25
2023-03-21T04:19:26.645Z,22.26
2023-03-21T04:20:36.634Z,22.26
2023-03-21T04:21:39.876Z,22.29
2023-03-21T04:22:42.090Z,22.28
2023-03-21T04:23:44.195Z,22.28
2023-03-21T04:24:45.969Z,22.07
2023-03-21T04:25:56.231Z,22.21
2023-03-21T04:27:05.971Z,22.30
2023-03-21T04:28:14.201Z,22.31
2023-03-21T04:29:23.047Z,22.31
2023-03-21T04:30:52.077Z,22.33
2023-03-21T04:32:03.566Z,22.36
2023-03-21T04:33:05.852Z,22.31
2023-03-21T04:34:12.642Z,22.30
2023-03-21T04:35:18.810Z,22.30
2023-03-21T04:36:39.585Z,22.27
2023-03-21T04:37:43.445Z,22.31
2023-03-21T04:38:49.152Z,22.31
2023-03-21T04:39:52.322Z,22.28
2023-03-21T04:40:54.201Z,22.26
2023-03-21T04:41:57.022Z,22.25
2023-03-21T04:43:01.298Z,22.24
2023-03-21T04:44:03.703Z,22.20
2023-03-21T04:45:06.179Z,22.24
2023-03-21T04:46:08.041Z,22.24
2023-03-21T04:47:10.113Z,22.24
2023-03-21T04:48:14.300Z,22.23
2023-03-21T04:49:16.260Z,22.18
2023-03-21T04:50:19.075Z,22.18
2023-03-21T04:51:21.051Z,22.14
2023-03-21T04:52:25.242Z,22.24
2023-03-21T04:53:27.404Z,22.24
2023-03-21T04:54:29.358Z,22.23
2023-03-21T04:55:32.462Z,22.24
2023-03-21T04:56:36.178Z,22.24
2023-03-21T04:57:38.804Z,22.19
2023-03-21T04:58:41.315Z,22.25
2023-03-21T04:59:43.235Z,22.18
2023-03-21T05:00:45.154Z,22.24
2023-03-21T05:01:47.432Z,22.23
2023-03-21T05:02:49.430Z,22.19
2023-03-21T05:03:51.917Z,22.22
2023-03-21T05:04:53.774Z,22.22
2023-03-21T05:05:55.679Z,22.23
2023-03-21T05:06:59.028Z,22.21
2023-03-21T05:08:00.918Z,22.24
2023-03-21T05:09:07.186Z,22.22
2023-03-21T05:10:12.330Z,22.23
2023-03-21T05:11:16.116Z,22.25
2023-03-21T05:12:19.445Z,22.19
2023-03-21T05:13:21.220Z,22.24
2023-03-21T05:14:26.224Z,22.23
2023-03-21T05:15:28.167Z,22.25
2023-03-21T05:16:30.969Z,22.21
2023-03-21T05:17:34.227Z,22.24
2023-03-21T05:18:38.829Z,22.20
2023-03-21T05:19:47.607Z,22.27
2023-03-21T05:20:54.205Z,22.25
2023-03-21T05:21:56.445Z,22.26
2023-03-21T05:23:01.501Z,22.18
2023-03-21T05:24:03.639Z,22.24
2023-03-21T05:25:08.716Z,22.23
2023-03-21T05:26:25.210Z,22.29
2023-03-21T05:27:36.026Z,22.27
2023-03-21T05:28:44.615Z,22.27
2023-03-21T05:29:46.700Z,22.26
2023-03-21T05:30:48.659Z,22.26
2023-03-21T05:31:51.697Z,22.25
2023-03-21T05:32:54.799Z,22.24
2023-03-21T05:33:56.698Z,22.24
2023-03-21T05:34:58.786Z,22.22
2023-03-21T05:36:01.008Z,22.24
2023-03-21T05:37:06.117Z,22.23
2023-03-21T05:38:23.427Z,22.26
2023-03-21T05:39:27.665Z,22.22
2023-03-21T05:40:38.961Z,22.22
2023-03-21T05:41:41.706Z,22.23
2023-03-21T05:42:44.218Z,22.18
2023-03-21T05:43:56.363Z,22.24
2023-03-21T05:44:58.653Z,22.22
2023-03-21T05:46:08.912Z,22.22
2023-03-21T05:47:11.541Z,22.20
2023-03-21T05:48:19.606Z,22.21
2023-03-21T05:49:44.306Z,22.23
2023-03-21T05:50:46.216Z,22.21
2023-03-21T05:51:53.291Z,22.21
2023-03-21T05:52:55.280Z,22.18
2023-03-21T05:53:57.326Z,22.16
2023-03-21T05:54:59.113Z,22.14
2023-03-21T05:56:03.443Z,22.14
2023-03-21T05:57:15.785Z,22.17
2023-03-21T05:58:28.797Z,22.14
2023-03-21T05:59:30.976Z,22.08
2023-03-21T06:00:33.103Z,22.13
2023-03-21T06:01:48.008Z,22.12
2023-03-21T06:02:51.455Z,22.14
2023-03-21T06:04:09.762Z,22.16
2023-03-21T06:05:11.617Z,22.14
2023-03-21T06:06:13.610Z,22.12
2023-03-21T06:07:24.090Z,22.14
2023-03-21T06:08:25.930Z,22.13
2023-03-21T06:09:28.050Z,22.13
2023-03-21T06:10:34.136Z,22.16
2023-03-21T06:11:42.131Z,22.17
2023-03-21T06:13:06.571Z,22.26
2023-03-21T06:14:09.105Z,22.26
2023-03-21T06:15:11.771Z,22.26
2023-03-21T06:16:33.815Z,22.36
2023-03-21T06:17:36.145Z,22.36
2023-03-21T06:18:44.274Z,22.35
2023-03-21T06:19:54.508Z,22.46
2023-03-21T06:21:03.358Z,22.43
2023-03-21T06:22:06.802Z,22.32
2023-03-21T06:23:11.359Z,22.53
2023-03-21T06:24:13.716Z,22.58
2023-03-21T06:25:16.839Z,22.62
2023-03-21T06:26:22.992Z,22.67
2023-03-21T06:27:26.432Z,22.71
2023-03-21T06:28:30.386Z,22.77
2023-03-21T06:29:32.191Z,22.77
2023-03-21T06:30:34.029Z,22.85
2023-03-21T06:31:57.360Z,22.92
2023-03-21T06:32:59.181Z,22.98
2023-03-21T06:34:01.014Z,23.00
2023-03-21T06:35:03.099Z,23.03
2023-03-21T06:36:05.191Z,23.07
2023-03-21T06:37:09.884Z,23.11
2023-03-21T06:38:12.987Z,23.13
2023-03-21T06:39:16.176Z,23.17
2023-03-21T06:40:19.645Z,23.22
2023-03-21T06:41:21.608Z,23.25
2023-03-21T06:42:33.686Z,23.20
2023-03-21T06:43:42.055Z,23.34
2023-03-21T06:44:43.892Z,23.34
2023-03-21T06:45:49.305Z,23.34
2023-03-21T06:46:52.009Z,23.35
2023-03-21T06:47:54.495Z,23.40
2023-03-21T06:49:20.085Z,23.49
2023-03-21T06:50:21.992Z,23.50
2023-03-21T06:51:24.700Z,23.50
2023-03-21T06:52:41.588Z,23.56
2023-03-21T06:53:44.630Z,23.54
2023-03-21T06:54:56.343Z,23.59
2023-03-21T06:55:58.321Z,23.59
2023-03-21T06:57:00.350Z,23.60
2023-03-21T06:58:05.814Z,23.62
2023-03-21T06:59:08.661Z,23.63
2023-03-21T07:00:22.888Z,23.65
2023-03-21T07:01:27.727Z,23.65
2023-03-21T07:02:38.870Z,23.70
2023-03-21T07:03:45.645Z,23.72
2023-03-21T07:04:47.486Z,23.72
2023-03-21T07:05:54.339Z,23.62
2023-03-21T07:06:57.217Z,23.73
2023-03-21T07:08:01.243Z,23.53
2023-03-21T07:09:05.928Z,23.76
2023-03-21T07:10:09.615Z,23.75
2023-03-21T07:11:27.325Z,23.80
2023-03-21T07:12:34.224Z,23.79
2023-03-21T07:13:48.772Z,23.82
2023-03-21T07:14:51.202Z,23.81
2023-03-21T07:15:54.556Z,23.80
2023-03-21T07:16:56.904Z,23.81
2023-03-21T07:17:58.775Z,23.80
2023-03-21T07:19:00.807Z,23.72
2023-03-21T07:20:06.492Z,23.79
2023-03-21T07:21:09.270Z,23.77
2023-03-21T07:22:11.186Z,23.81
2023-03-21T07:23:13.213Z,23.81
2023-03-21T07:24:15.456Z,23.80
2023-03-21T07:25:17.638Z,23.80
2023-03-21T07:26:19.659Z,23.77
2023-03-21T07:27:21.457Z,23.80
2023-03-21T07:28:24.102Z,23.77
2023-03-21T07:29:26.022Z,23.79
2023-03-21T07:30:28.040Z,23.78
2023-03-21T07:31:29.939Z,23.74
2023-03-21T07:32:35.519Z,23.73
2023-03-21T07:33:37.950Z,23.78
2023-03-21T07:34:39.907Z,23.76
2023-03-21T07:35:42.034Z,23.77
2023-03-21T07:36:43.917Z,23.76
2023-03-21T07:37:46.252Z,23.72
2023-03-21T07:38:51.453Z,23.76
2023-03-21T07:39:57.727Z,23.77
2023-03-21T07:41:00.898Z,23.76
2023-03-21T07:42:06.264Z,23.67
2023-03-21T07:43:14.650Z,23.77
2023-03-21T07:44:18.749Z,23.77
2023-03-21T07:45:22.080Z,23.76
2023-03-21T07:46:24.085Z,23.77
2023-03-21T07:47:25.936Z,23.76
2023-03-21T07:48:28.504Z,23.76
2023-03-21T07:49:31.184Z,23.76
2023-03-21T07:50:33.020Z,23.76
2023-03-21T07:51:36.035Z,23.77
2023-03-21T07:52:37.826Z,23.76
2023-03-21T07:53:42.031Z,23.77
2023-03-21T07:54:44.038Z,23.77
2023-03-21T07:55:50.165Z,23.77
2023-03-21T07:56:51.943Z,23.78
2023-03-21T07:57:54.139Z,23.77
2023-03-21T07:58:56.295Z,23.79
2023-03-21T07:59:58.250Z,23.77
2023-03-21T08:01:00.700Z,23.71
2023-03-21T08:02:02.610Z,23.78
2023-03-21T08:03:04.581Z,23.77
2023-03-21T08:04:06.830Z,23.79
2023-03-21T08:05:11.562Z,23.78
2023-03-21T08:06:13.668Z,23.80
2023-03-21T08:07:15.768Z,23.80
2023-03-21T08:08:17.833Z,23.80
2023-03-21T08:09:19.754Z,23.80
2023-03-21T08:10:21.605Z,23.80
2023-03-21T08:11:24.723Z,23.80
2023-03-21T08:12:26.735Z,23.82
2023-03-21T08:13:28.612Z,23.81
2023-03-21T08:14:30.619Z,23.82
2023-03-21T08:15:32.454Z,23.82
2023-03-21T08:16:34.292Z,23.82
2023-03-21T08:17:39.949Z,23.82
2023-03-21T08:18:42.796Z,23.83
2023-03-21T08:19:45.127Z,23.77
2023-03-21T08:20:55.533Z,23.79
2023-03-21T08:21:59.837Z,23.85
2023-03-21T08:23:02.060Z,23.86
2023-03-21T08:24:03.979Z,23.84
2023-03-21T08:25:08.151Z,23.83
2023-03-21T08:26:10.422Z,23.84
2023-03-21T08:27:12.639Z,23.71
2023-03-21T08:28:14.421Z,23.84
2023-03-21T08:29:16.341Z,23.83
2023-03-21T08:30:24.136Z,23.82
2023-03-21T08:31:26.199Z,23.80
2023-03-21T08:32:31.336Z,23.85
2023-03-21T08:33:33.145Z,23.85
2023-03-21T08:34:35.642Z,23.83
2023-03-21T08:35:40.412Z,23.86
2023-03-21T08:36:42.773Z,23.84
2023-03-21T08:37:44.935Z,23.83
2023-03-21T08:38:48.499Z,23.85
2023-03-21T08:39:50.426Z,23.86
2023-03-21T08:40:52.349Z,23.84
2023-03-21T08:41:54.715Z,23.80
2023-03-21T08:42:56.669Z,23.85
2023-03-21T08:43:58.545Z,23.78
2023-03-21T08:45:00.374Z,23.86
2023-03-21T08:46:04.248Z,23.86
2023-03-21T08:47:06.610Z,23.86
2023-03-21T08:48:08.458Z,23.86
2023-03-21T08:49:10.358Z,23.86
2023-03-21T08:50:15.621Z,23.81
2023-03-21T08:51:17.413Z,23.88
2023-03-21T08:52:19.218Z,23.86
2023-03-21T08:53:21.197Z,23.87
2023-03-21T08:54:23.432Z,23.88
2023-03-21T08:55:25.609Z,23.87
2023-03-21T08:56:27.480Z,23.88
2023-03-21T08:57:30.481Z,23.85
2023-03-21T08:58:32.319Z,23.87
2023-03-21T08:59:34.870Z,23.86
2023-03-21T09:00:36.665Z,23.86
2023-03-21T09:01:38.542Z,23.84
2023-03-21T09:02:45.125Z,23.86
2023-03-21T09:03:46.966Z,23.90
2023-03-21T09:04:48.943Z,23.90
2023-03-21T09:05:54.033Z,23.87
2023-03-21T09:06:56.370Z,23.91
2023-03-21T09:07:58.216Z,23.90
2023-03-21T09:09:00.082Z,23.84
2023-03-21T09:10:22.147Z,23.90
2023-03-21T09:11:24.227Z,23.95
2023-03-21T09:12:26.602Z,23.90
2023-03-21T09:13:28.471Z,23.92
2023-03-21T09:14:30.301Z,23.88
2023-03-21T09:15:32.121Z,23.84
2023-03-21T09:16:34.599Z,23.91
2023-03-21T09:17:36.493Z,23.87
2023-03-21T09:18:49.550Z,23.90
2023-03-21T09:19:53.559Z,23.93
2023-03-21T09:20:55.588Z,23.92
2023-03-21T09:21:58.018Z,23.91
2023-03-21T09:23:01.768Z,23.89
2023-03-21T09:24:05.706Z,23.90
2023-03-21T09:25:08.515Z,23.85
2023-03-21T09:26:11.433Z,23.89
2023-03-21T09:27:23.173Z,23.83
2023-03-21T09:28:25.104Z,23.92
2023-03-21T09:29:27.210Z,23.91
2023-03-21T09:30:31.648Z,23.89
2023-03-21T09:31:34.031Z,23.90
2023-03-21T09:32:37.151Z,23.89
2023-03-21T09:33:43.324Z,23.89
2023-03-21T09:34:46.026Z,23.89
2023-03-21T09:35:49.551Z,23.89
2023-03-21T09:36:57.100Z,23.90
2023-03-21T09:37:59.285Z,23.90
2023-03-21T09:39:01.703Z,23.90
2023-03-21T09:40:09.224Z,23.89
2023-03-21T09:41:41.666Z,23.94
2023-03-21T09:42:52.111Z,23.96
2023-03-21T09:43:53.868Z,23.96
2023-03-21T09:45:18.880Z,23.93
2023-03-21T09:46:32.676Z,23.96
2023-03-21T09:47:49.709Z,23.94
2023-03-21T09:48:59.929Z,23.96
2023-03-21T09:50:14.767Z,23.92
2023-03-21T09:51:19.056Z,23.95
2023-03-21T09:52:41.329Z,23.93
2023-03-21T09:53:47.916Z,23.89
2023-03-21T09:54:50.145Z,23.94
2023-03-21T09:55:54.335Z,23.92
2023-03-21T09:57:01.154Z,23.86
2023-03-21T09:58:05.988Z,23.88
2023-03-21T09:59:18.296Z,23.89
2023-03-21T10:00:29.929Z,23.89
2023-03-21T10:01:41.788Z,23.86
2023-03-21T10:02:51.909Z,23.91
2023-03-21T10:03:55.977Z,23.81
2023-03-21T10:05:00.307Z,23.90
2023-03-21T10:06:10.980Z,23.81
2023-03-21T10:07:18.948Z,23.81
2023-03-21T10:08:27.584Z,23.83
2023-03-21T10:09:32.628Z,23.88
2023-03-21T10:11:03.931Z,23.92
2023-03-21T10:12:14.859Z,23.91
2023-03-21T10:13:31.320Z,23.90
2023-03-21T10:14:46.340Z,23.91
2023-03-21T10:15:49.084Z,23.89
2023-03-21T10:16:58.156Z,23.86
2023-03-21T10:18:07.252Z,23.77
2023-03-21T10:19:13.895Z,23.84
2023-03-21T10:20:18.183Z,23.85
2023-03-21T10:21:51.494Z,23.83
2023-03-21T10:22:47.754Z,23.86
2023-03-21T10:23:52.054Z,23.85
2023-03-21T10:24:53.905Z,23.85
2023-03-21T10:25:59.924Z,23.82
2023-03-21T10:27:03.598Z,23.83
2023-03-21T10:28:07.648Z,23.82
2023-03-21T10:29:12.706Z,23.83
2023-03-21T10:30:28.468Z,23.85
2023-03-21T10:31:31.590Z,23.83
2023-03-21T10:32:34.447Z,23.85
2023-03-21T10:33:43.863Z,23.83
2023-03-21T10:34:50.728Z,23.83
2023-03-21T10:35:57.270Z,23.84
2023-03-21T10:37:03.591Z,23.83
2023-03-21T10:38:07.267Z,23.84
2023-03-21T10:39:26.008Z,23.83
2023-03-21T10:40:28.096Z,23.84
2023-03-21T10:41:30.119Z,23.85
2023-03-21T10:42:33.921Z,23.81
2023-03-21T10:43:38.224Z,23.82
2023-03-21T10:44:40.024Z,23.83
2023-03-21T10:45:41.932Z,23.81
2023-03-21T10:46:59.006Z,23.82
2023-03-21T10:48:08.188Z,23.84
2023-03-21T10:49:10.130Z,23.85
2023-03-21T10:50:16.210Z,23.83
2023-03-21T10:51:31.895Z,23.84
2023-03-21T10:52:34.965Z,23.86
2023-03-21T10:53:41.282Z,23.83
2023-03-21T10:54:45.829Z,23.83
2023-03-21T10:55:52.494Z,23.79
2023-03-21T10:56:58.534Z,23.84
2023-03-21T10:58:08.700Z,23.84
2023-03-21T10:59:20.409Z,23.81
2023-03-21T11:00:26.308Z,23.86
2023-03-21T11:01:41.992Z,23.78
2023-03-21T11:02:49.823Z,23.78
2023-03-21T11:03:58.141Z,23.85
2023-03-21T11:05:07.728Z,23.83
2023-03-21T11:06:22.735Z,23.83
2023-03-21T11:07:31.099Z,23.85
2023-03-21T11:08:39.667Z,23.83
2023-03-21T11:09:47.333Z,23.83
2023-03-21T11:11:02.737Z,23.76
2023-03-21T11:12:14.335Z,23.83
2023-03-21T11:13:25.770Z,23.77
2023-03-21T11:14:46.178Z,23.84
2023-03-21T11:16:07.278Z,23.84
2023-03-21T11:17:18.265Z,23.85
2023-03-21T11:18:23.156Z,23.82
2023-03-21T11:19:33.554Z,23.77
2023-03-21T11:20:43.546Z,23.74
2023-03-21T11:21:45.677Z,23.74
2023-03-21T11:22:48.959Z,23.76
2023-03-21T11:23:52.898Z,23.73
2023-03-21T11:25:00.506Z,23.67
2023-03-21T11:26:03.795Z,23.69
2023-03-21T11:27:07.815Z,23.68
2023-03-21T11:28:15.970Z,23.72
2023-03-21T11:29:36.417Z,23.69
2023-03-21T11:30:59.056Z,23.77
2023-03-21T11:32:22.738Z,23.78
2023-03-21T11:33:51.038Z,23.80
2023-03-21T11:35:06.137Z,23.82
2023-03-21T11:36:32.223Z,23.83
2023-03-21T11:37:39.482Z,23.80
2023-03-21T11:38:41.386Z,23.74
2023-03-21T11:39:44.910Z,23.75
2023-03-21T11:40:57.008Z,23.74
2023-03-21T11:41:59.160Z,23.75
2023-03-21T11:43:22.297Z,23.77
2023-03-21T11:44:33.807Z,23.77
2023-03-21T11:45:36.696Z,23.76
2023-03-21T11:46:41.153Z,23.72
2023-03-21T11:47:44.074Z,23.73
2023-03-21T11:48:50.412Z,23.71
2023-03-21T11:49:58.407Z,23.68
2023-03-21T11:51:24.561Z,23.75
2023-03-21T11:52:38.638Z,23.68
2023-03-21T11:53:48.494Z,23.73
2023-03-21T11:55:25.740Z,23.78
2023-03-21T11:56:40.460Z,23.79
2023-03-21T11:58:28.916Z,23.81
2023-03-21T11:59:57.124Z,23.80
2023-03-21T12:01:10.200Z,23.80
2023-03-21T12:02:23.007Z,23.76
2023-03-21T12:03:47.504Z,23.74
2023-03-21T12:04:59.045Z,23.75
2023-03-21T12:06:05.277Z,23.64
2023-03-21T12:07:41.564Z,23.74
2023-03-21T12:08:49.078Z,23.73
2023-03-21T12:10:32.600Z,23.74
2023-03-21T12:11:40.299Z,23.76
2023-03-21T12:13:06.240Z,23.65
2023-03-21T12:14:17.112Z,23.74
2023-03-21T12:15:35.811Z,23.72
2023-03-21T12:17:13.352Z,23.71
2023-03-21T12:18:31.725Z,23.76
2023-03-21T12:19:45.457Z,23.74
2023-03-21T12:21:03.982Z,23.73
2023-03-21T12:22:24.305Z,23.72
2023-03-21T12:23:49.373Z,23.74
2023-03-21T12:24:58.762Z,23.72
2023-03-21T12:26:03.559Z,23.70
2023-03-21T12:27:11.365Z,23.68
2023-03-21T12:28:52.060Z,23.72
2023-03-21T12:30:11.589Z,23.73
2023-03-21T12:31:29.947Z,23.72
2023-03-21T12:32:40.912Z,23.69
2023-03-21T12:34:03.584Z,23.64
2023-03-21T12:35:33.477Z,23.71
2023-03-21T12:36:48.457Z,23.74
2023-03-21T12:38:24.684Z,23.70
2023-03-21T12:39:33.257Z,23.69
2023-03-21T12:40:37.742Z,23.67
2023-03-21T12:42:02.345Z,23.66
2023-03-21T12:43:19.439Z,23.69
2023-03-21T12:44:24.421Z,23.65
2023-03-21T12:45:45.851Z,23.57
2023-03-21T12:47:11.300Z,23.68
2023-03-21T12:48:19.438Z,23.65
2023-03-21T12:49:36.027Z,23.63
2023-03-21T12:50:39.075Z,23.63
2023-03-21T12:51:56.601Z,23.56
2023-03-21T12:53:30.374Z,23.63
2023-03-21T12:54:38.207Z,23.66
2023-03-21T12:55:41.875Z,23.59
2023-03-21T12:57:01.921Z,23.63
2023-03-21T12:58:25.651Z,23.59
2023-03-21T12:59:31.754Z,23.65
2023-03-21T13:00:44.233Z,23.62
2023-03-21T13:01:51.650Z,23.59
2023-03-21T13:02:58.941Z,23.61
2023-03-21T13:04:09.598Z,23.61
2023-03-21T13:05:27.673Z,23.60
2023-03-21T13:06:30.702Z,23.62
2023-03-21T13:07:40.963Z,23.60
2023-03-21T13:09:11.710Z,23.65
2023-03-21T13:10:17.166Z,23.65
2023-03-21T13:11:23.565Z,23.61
2023-03-21T13:12:37.286Z,23.62
2023-03-21T13:13:43.878Z,23.62
2023-03-21T13:15:24.413Z,23.64
2023-03-21T13:16:48.061Z,23.68
2023-03-21T13:18:13.287Z,23.67
2023-03-21T13:19:35.753Z,23.67
2023-03-21T13:20:54.749Z,23.69
2023-03-21T13:22:09.070Z,23.66
2023-03-21T13:23:12.141Z,23.67
2023-03-21T13:24:38.294Z,23.63
2023-03-21T13:25:46.986Z,23.66
2023-03-21T13:26:51.298Z,23.59
2023-03-21T13:27:55.578Z,23.61
2023-03-21T13:28:58.522Z,23.60
2023-03-21T13:30:18.156Z,23.51
2023-03-21T13:31:27.001Z,23.62
2023-03-21T13:32:34.090Z,23.61
2023-03-21T13:33:37.607Z,23.62
2023-03-21T13:34:40.332Z,23.56
2023-03-21T13:35:44.953Z,23.53
2023-03-21T13:36:49.278Z,23.40
2023-03-21T13:37:57.083Z,23.58
2023-03-21T13:39:07.679Z,23.59
2023-03-21T13:40:28.981Z,23.62
2023-03-21T13:41:38.883Z,23.62
2023-03-21T13:42:46.164Z,23.61
2023-03-21T13:44:23.711Z,23.68
2023-03-21T13:45:44.594Z,23.67
2023-03-21T13:46:56.345Z,23.68
2023-03-21T13:48:06.483Z,23.65
2023-03-21T13:49:08.365Z,23.64
2023-03-21T13:50:19.554Z,23.60
2023-03-21T13:51:36.771Z,23.61
2023-03-21T13:52:38.624Z,23.62
2023-03-21T13:53:45.725Z,23.60
2023-03-21T13:54:57.536Z,23.59
2023-03-21T13:56:14.621Z,23.62
2023-03-21T13:57:43.957Z,23.61
2023-03-21T13:58:48.489Z,23.65
2023-03-21T14:00:10.669Z,23.62
2023-03-21T14:01:12.815Z,23.64
2023-03-21T14:02:34.299Z,23.63
2023-03-21T14:03:36.294Z,23.53
2023-03-21T14:04:48.537Z,23.53
2023-03-21T14:05:57.036Z,23.59
2023-03-21T14:07:05.054Z,23.51
2023-03-21T14:08:15.764Z,23.58
2023-03-21T14:09:44.287Z,23.63
2023-03-21T14:10:49.361Z,23.63
2023-03-21T14:11:56.436Z,23.61
2023-03-21T14:12:59.980Z,23.58
2023-03-21T14:14:04.238Z,23.46
2023-03-21T14:15:17.481Z,23.57
2023-03-21T14:16:21.114Z,23.60
2023-03-21T14:17:28.289Z,23.51
2023-03-21T14:18:55.464Z,23.60
2023-03-21T14:20:01.072Z,23.62
2023-03-21T14:21:05.089Z,23.62
2023-03-21T14:22:13.719Z,23.61
2023-03-21T14:23:17.292Z,23.61
2023-03-21T14:24:20.465Z,23.59
2023-03-21T14:25:29.211Z,23.35
2023-03-21T14:26:36.790Z,23.59
2023-03-21T14:27:42.437Z,23.51
2023-03-21T14:28:49.717Z,23.58
2023-03-21T14:29:53.404Z,23.59
2023-03-21T14:31:00.024Z,23.58
2023-03-21T14:32:03.538Z,23.58
2023-03-21T14:33:27.881Z,23.57
2023-03-21T14:34:32.928Z,23.56
2023-03-21T14:35:35.754Z,23.54
2023-03-21T14:36:43.084Z,23.58
2023-03-21T14:37:47.911Z,23.60
2023-03-21T14:38:58.284Z,23.40
2023-03-21T14:40:09.155Z,23.59
2023-03-21T14:41:26.941Z,23.62
2023-03-21T14:42:34.881Z,23.61
2023-03-21T14:43:36.659Z,23.62
2023-03-21T14:44:54.994Z,23.59
2023-03-21T14:45:57.657Z,23.51
2023-03-21T14:47:06.477Z,23.59
2023-03-21T14:48:14.313Z,23.59
2023-03-21T14:49:28.288Z,23.52